Larkspur, CO

3:45 AM MDT on September 23, 2014 (GMT -0600)
Bernhardt's Barnyard, Spruce Mtn Rd. | Change Station
CLOSE
Current Station
Personal Weather Station
Location: Larkspur, CO
Elevation: 6776 ft
Nearby Weather Stations

Elev 6776 ft 39.21 °N, 104.88 °W | Updated 46 seconds ago

Partly Cloudy
Partly Cloudy
48.9 °F
Feels Like 48 °F
N
3.1
Wind Variable Wind from SE
Gusts 7.6 mph

Today
High -- | Low -- °F
--% Chance of Precip.
Yesterday
High -- | Low -- °F
Precip. -- in
6:48 AM 6:54 PM
Waning Crescent, 1% visible
Pressure 30.22 in
Visibility 10.0 miles
Clouds Scattered Clouds 9000 ft
Windchill 48 °F
Dew Point 48 °F
Humidity 95%
Rainfall 0.00 in
Snow Depth 0 in , 0 in , 1 in
UV 0 out of 12
Pollen 4.60 out of 12
Air Quality Not available.
Flu Activity Not available.
METAR KMNH 230933Z AUTO 19007KT 10SM SCT090 10/06 A3022 RMK AO2

More Conditions Fewer Conditions

Pressure 30.22 in
Visibility 10.0 miles
Clouds Scattered Clouds 9000 ft
Windchill 48 °F
Dew Point 48 °F
Humidity 95%
Rainfall 0.00 in
Snow Depth 0 in , 0 in , 1 in
UV 0 out of 12
Pollen 4.60 out of 12
Air Quality Not available.
Flu Activity Not available.
METAR KMNH 230933Z AUTO 19007KT 10SM SCT090 10/06 A3022 RMK AO2

More Conditions Fewer Conditions

10-Day Weather Forecast

Almanac

Astronomy

Sep. 23, 2014 Rise Set
Actual Time 6:48 AM MDT 6:54 PM MDT
Civil Twilight 6:21 AM MDT 7:21 PM MDT
Nautical Twilight 5:50 AM MDT 7:52 PM MDT
Astronomical Twilight 5:18 AM MDT 8:24 PM MDT
Moon 6:14 AM MDT 6:35 PM MDT
Length of Visible Light 13h 00m
Length of Day
12h 06m
Tomorrow will be 2m 32s shorter.
Waning Crescent, 1% of the Moon is Illuminated
Today
Waning Crescent
Sep 24
New
Oct 1
First Quarter
Oct 8
Full
Oct 15
Last Quarter

Today's Extremes

State Highs State Lows

Community

WunderPhotos

Upload Photos

1,755,644 photos uploaded!

Nearby

Air Quality

  Air Quality AQ Index Pollutant
Yesterday Good
OZONE
Yesterday Good
PM2.5
Tuesday Good
PM2.5
Tuesday Good
OZONE

Snow Depth

Station Depth Elevation
Summit Ranch 0 in 9400 ft
Lily Pond 2 in 11000 ft
Butte 0 in 10160 ft
Schofield Pass 0 in 10700 ft
Ivanhoe 0 in 10400 ft

Earthquake Activity

City Distance Mag. Time & Date
No recent earthquake activity has been reported nearby.
Minimum magnitude displayed is 2.5.

Coastal Water Temperatures

Place Temperature
No Stations Reporting

Nearby Weather Stations